createdAt,value
2019-01-19T00:00:36.819Z,3.60
2019-01-19T00:01:36.806Z,4.30
2019-01-19T00:02:36.815Z,2.70
2019-01-19T00:03:36.797Z,3.00
2019-01-19T00:04:36.775Z,4.70
2019-01-19T00:05:36.774Z,3.40
2019-01-19T00:06:36.753Z,2.80
2019-01-19T00:07:36.764Z,3.50
2019-01-19T00:08:36.733Z,2.90
2019-01-19T00:09:36.726Z,2.50
2019-01-19T00:10:36.728Z,3.30
2019-01-19T00:11:36.704Z,2.60
2019-01-19T00:12:36.714Z,2.80
2019-01-19T00:13:36.679Z,3.70
2019-01-19T00:14:36.674Z,3.60
2019-01-19T00:15:36.669Z,4.20
2019-01-19T00:16:36.682Z,2.10
2019-01-19T00:17:36.652Z,3.10
2019-01-19T00:18:36.628Z,3.70
2019-01-19T00:19:36.618Z,3.70
2019-01-19T00:20:36.605Z,2.50
2019-01-19T00:21:36.604Z,2.80
2019-01-19T00:22:36.611Z,2.20
2019-01-19T00:23:36.572Z,3.60
2019-01-19T00:24:36.579Z,3.30
2019-01-19T00:25:36.560Z,2.50
2019-01-19T00:26:36.547Z,3.20
2019-01-19T00:27:36.541Z,2.60
2019-01-19T00:28:36.536Z,2.60
2019-01-19T00:29:36.509Z,3.30
2019-01-19T00:30:36.510Z,3.20
2019-01-19T00:31:36.495Z,3.40
2019-01-19T00:32:36.481Z,3.20
2019-01-19T00:33:36.490Z,2.80
2019-01-19T00:34:36.466Z,3.80
2019-01-19T00:35:36.521Z,3.40
2019-01-19T00:36:36.521Z,3.60
2019-01-19T00:37:36.450Z,3.80
2019-01-19T00:38:36.450Z,2.10
2019-01-19T00:39:36.405Z,3.60
2019-01-19T00:40:36.392Z,3.10
2019-01-19T00:41:36.381Z,3.80
2019-01-19T00:42:36.376Z,4.00
2019-01-19T00:43:36.378Z,2.80
2019-01-19T00:44:36.353Z,3.00
2019-01-19T00:45:36.342Z,3.00
2019-01-19T00:46:36.337Z,2.60
2019-01-19T00:47:36.322Z,3.40
2019-01-19T00:48:36.322Z,2.80
2019-01-19T00:49:36.303Z,2.90
2019-01-19T00:50:36.287Z,2.80
2019-01-19T00:51:36.278Z,2.40
2019-01-19T00:52:36.271Z,2.80
2019-01-19T00:53:36.264Z,3.60
2019-01-19T00:54:36.244Z,3.00
2019-01-19T00:55:36.255Z,2.60
2019-01-19T00:56:36.231Z,2.80
2019-01-19T00:57:36.220Z,3.50
2019-01-19T00:58:36.216Z,1.80
2019-01-19T00:59:36.195Z,2.70
2019-01-19T01:00:36.184Z,1.70
2019-01-19T01:01:36.175Z,2.60
2019-01-19T01:02:36.166Z,3.60
2019-01-19T01:03:36.187Z,4.60
2019-01-19T01:04:36.149Z,7.50
2019-01-19T01:05:36.129Z,2.40
2019-01-19T01:06:36.120Z,4.30
2019-01-19T01:07:36.109Z,2.20
2019-01-19T01:08:36.106Z,3.30
2019-01-19T01:09:36.102Z,2.10
2019-01-19T01:10:36.075Z,2.80
2019-01-19T01:11:36.067Z,3.80
2019-01-19T01:12:36.054Z,5.60
2019-01-19T01:13:36.156Z,2.60
2019-01-19T01:14:36.051Z,2.60
2019-01-19T01:15:36.026Z,2.40
2019-01-19T01:16:36.014Z,2.30
2019-01-19T01:17:36.001Z,2.10
2019-01-19T01:18:35.992Z,3.40
2019-01-19T01:19:35.997Z,2.30
2019-01-19T01:20:35.984Z,3.90
2019-01-19T01:21:35.953Z,1.80
2019-01-19T01:22:35.981Z,3.00
2019-01-19T01:23:35.935Z,2.50
2019-01-19T01:24:35.982Z,2.90
2019-01-19T01:25:35.926Z,2.20
2019-01-19T01:26:35.904Z,3.90
2019-01-19T01:27:35.892Z,2.80
2019-01-19T01:28:35.919Z,2.60
2019-01-19T01:29:35.880Z,3.30
2019-01-19T01:30:35.867Z,4.40
2019-01-19T01:31:35.853Z,3.80
2019-01-19T01:32:35.840Z,2.40
2019-01-19T01:33:35.830Z,2.90
2019-01-19T01:34:35.834Z,4.00
2019-01-19T01:35:35.811Z,2.30
2019-01-19T01:36:35.800Z,1.80
2019-01-19T01:37:35.786Z,1.70
2019-01-19T01:38:35.776Z,2.10
2019-01-19T01:39:35.778Z,1.50
2019-01-19T01:40:35.764Z,2.80
2019-01-19T01:41:35.750Z,3.00
2019-01-19T01:42:35.735Z,2.30
2019-01-19T01:43:35.730Z,1.80
2019-01-19T01:44:35.725Z,3.00
2019-01-19T01:45:35.703Z,3.50
2019-01-19T01:46:35.688Z,2.40
2019-01-19T01:47:35.682Z,2.20
2019-01-19T01:48:35.676Z,3.00
2019-01-19T01:49:35.691Z,3.30
2019-01-19T01:50:35.648Z,2.20
2019-01-19T01:51:35.637Z,3.20
2019-01-19T01:52:35.630Z,2.20
2019-01-19T01:53:35.621Z,2.20
2019-01-19T01:54:35.614Z,3.20
2019-01-19T01:55:35.615Z,2.90
2019-01-19T01:56:35.583Z,2.40
2019-01-19T01:57:35.573Z,2.20
2019-01-19T01:58:35.564Z,3.60
2019-01-19T01:59:35.550Z,2.40
2019-01-19T02:00:35.717Z,2.00
2019-01-19T02:01:35.533Z,3.00
2019-01-19T02:02:35.520Z,3.20
2019-01-19T02:03:35.515Z,1.90
2019-01-19T02:04:35.500Z,2.20
2019-01-19T02:05:40.216Z,2.00
2019-01-19T02:06:36.478Z,2.20
2019-01-19T02:07:35.496Z,1.90
2019-01-19T02:08:35.461Z,2.50
2019-01-19T02:09:35.448Z,2.30
2019-01-19T02:10:35.450Z,2.30
2019-01-19T02:11:35.429Z,2.20
2019-01-19T02:12:35.419Z,2.20
2019-01-19T02:13:35.404Z,2.10
2019-01-19T02:14:35.397Z,1.70
2019-01-19T02:15:35.420Z,2.30
2019-01-19T02:16:35.375Z,3.00
2019-01-19T02:17:35.362Z,2.90
2019-01-19T02:18:35.350Z,2.40
2019-01-19T02:19:35.341Z,2.90
2019-01-19T02:20:35.348Z,2.60
2019-01-19T02:21:35.318Z,1.90
2019-01-19T02:22:35.308Z,2.50
2019-01-19T02:23:35.297Z,2.60
2019-01-19T02:24:35.289Z,1.80
2019-01-19T02:25:35.299Z,2.90
2019-01-19T02:26:35.264Z,2.10
2019-01-19T02:27:35.254Z,3.20
2019-01-19T02:28:35.244Z,1.80
2019-01-19T02:29:35.233Z,2.50
2019-01-19T02:30:35.227Z,1.90
2019-01-19T02:31:35.220Z,2.50
2019-01-19T02:32:35.200Z,2.80
2019-01-19T02:33:35.191Z,3.70
2019-01-19T02:34:35.182Z,1.60
2019-01-19T02:35:35.176Z,2.50
2019-01-19T02:36:35.172Z,2.10
2019-01-19T02:37:35.165Z,2.30
2019-01-19T02:38:35.135Z,2.10
2019-01-19T02:39:35.124Z,2.50
2019-01-19T02:40:35.116Z,2.00
2019-01-19T02:41:35.122Z,1.70
2019-01-19T02:42:35.094Z,2.20
2019-01-19T02:43:35.089Z,2.10
2019-01-19T02:44:35.072Z,1.40
2019-01-19T02:45:35.075Z,1.60
2019-01-19T02:46:35.069Z,2.70
2019-01-19T02:47:35.047Z,2.70
2019-01-19T02:48:35.027Z,1.30
2019-01-19T02:49:35.020Z,2.10
2019-01-19T02:50:35.016Z,2.60
2019-01-19T02:51:35.013Z,2.90
2019-01-19T02:52:34.990Z,1.80
2019-01-19T02:53:34.976Z,1.90
2019-01-19T02:54:34.967Z,1.90
2019-01-19T02:55:34.958Z,2.00
2019-01-19T02:56:34.960Z,1.60
2019-01-19T02:57:34.939Z,1.60
2019-01-19T02:58:34.926Z,3.00
2019-01-19T02:59:34.912Z,1.60
2019-01-19T03:00:34.908Z,2.10
2019-01-19T03:01:34.904Z,2.00
2019-01-19T03:02:34.882Z,2.30
2019-01-19T03:03:34.872Z,1.60
2019-01-19T03:04:34.858Z,2.00
2019-01-19T03:05:34.851Z,2.10
2019-01-19T03:06:34.860Z,2.70
2019-01-19T03:07:34.836Z,1.70
2019-01-19T03:08:34.822Z,2.70
2019-01-19T03:09:34.810Z,2.40
2019-01-19T03:10:34.799Z,2.10
2019-01-19T03:11:34.789Z,2.40
2019-01-19T03:12:34.794Z,3.00
2019-01-19T03:13:34.765Z,1.80
2019-01-19T03:14:34.756Z,2.60
2019-01-19T03:15:34.749Z,2.30
2019-01-19T03:16:34.734Z,1.40
2019-01-19T03:17:34.739Z,3.40
2019-01-19T03:18:34.721Z,2.50
2019-01-19T03:19:34.704Z,1.90
2019-01-19T03:20:34.691Z,2.80
2019-01-19T03:21:34.682Z,2.40
2019-01-19T03:22:34.684Z,2.30
2019-01-19T03:23:34.659Z,1.70
2019-01-19T03:24:34.651Z,2.60
2019-01-19T03:25:34.639Z,2.10
2019-01-19T03:26:34.632Z,2.30
2019-01-19T03:27:34.633Z,2.10
2019-01-19T03:28:34.613Z,2.20
2019-01-19T03:29:34.597Z,2.30
2019-01-19T03:30:34.587Z,1.90
2019-01-19T03:31:34.582Z,2.10
2019-01-19T03:32:34.578Z,3.10
2019-01-19T03:33:34.554Z,2.50
2019-01-19T03:34:34.545Z,1.60
2019-01-19T03:35:34.533Z,2.00
2019-01-19T03:36:34.580Z,2.50
2019-01-19T03:37:34.523Z,1.80
2019-01-19T03:38:34.502Z,1.50
2019-01-19T03:39:34.492Z,2.60
2019-01-19T03:40:34.501Z,2.30
2019-01-19T03:41:34.470Z,2.40
2019-01-19T03:42:34.480Z,2.70
2019-01-19T03:43:34.451Z,3.00
2019-01-19T03:44:34.442Z,2.20
2019-01-19T03:45:34.433Z,1.60
2019-01-19T03:46:34.425Z,1.70
2019-01-19T03:47:34.423Z,1.50
2019-01-19T03:48:34.398Z,2.30
2019-01-19T03:49:34.387Z,3.00
2019-01-19T03:50:34.378Z,1.90
2019-01-19T03:51:34.416Z,1.90
2019-01-19T03:52:34.388Z,1.50
2019-01-19T03:53:34.347Z,1.60
2019-01-19T03:54:34.332Z,1.60
2019-01-19T03:55:34.332Z,1.30
2019-01-19T03:56:34.310Z,2.20
2019-01-19T03:57:34.301Z,3.40
2019-01-19T03:58:34.302Z,1.70
2019-01-19T03:59:34.282Z,1.80
2019-01-19T04:00:34.268Z,2.10
2019-01-19T04:01:34.259Z,1.90
2019-01-19T04:02:34.248Z,1.70
2019-01-19T04:03:34.253Z,2.10
2019-01-19T04:04:34.227Z,2.00
2019-01-19T04:05:34.214Z,1.70
2019-01-19T04:06:34.210Z,1.60
2019-01-19T04:07:34.196Z,1.70
2019-01-19T04:08:34.197Z,1.50
2019-01-19T04:09:34.169Z,1.30
2019-01-19T04:10:34.163Z,1.60
2019-01-19T04:11:34.155Z,2.50
2019-01-19T04:12:34.138Z,1.90
2019-01-19T04:13:34.146Z,2.20
2019-01-19T04:14:34.136Z,1.70
2019-01-19T04:15:34.111Z,2.50
2019-01-19T04:16:34.100Z,1.60
2019-01-19T04:17:34.086Z,1.90
2019-01-19T04:18:34.092Z,1.70
2019-01-19T04:19:34.069Z,1.90
2019-01-19T04:20:34.056Z,1.50
2019-01-19T04:21:34.054Z,2.00
2019-01-19T04:22:34.035Z,2.20
2019-01-19T04:23:34.040Z,1.80
2019-01-19T04:24:34.016Z,2.00
2019-01-19T04:25:34.001Z,2.20
2019-01-19T04:26:33.995Z,1.80
2019-01-19T04:27:33.981Z,1.10
2019-01-19T04:28:33.990Z,2.50
2019-01-19T04:29:33.965Z,1.70
2019-01-19T04:30:33.954Z,1.50
2019-01-19T04:31:33.944Z,2.00
2019-01-19T04:32:33.937Z,2.20
2019-01-19T04:33:33.962Z,2.10
2019-01-19T04:34:33.929Z,2.20
2019-01-19T04:35:33.899Z,1.90
2019-01-19T04:36:33.891Z,1.70
2019-01-19T04:37:33.880Z,1.30
2019-01-19T04:38:33.870Z,1.50
2019-01-19T04:39:33.871Z,2.10
2019-01-19T04:40:33.849Z,2.40
2019-01-19T04:41:33.846Z,1.20
2019-01-19T04:42:33.827Z,2.40
2019-01-19T04:43:33.826Z,1.70
2019-01-19T04:44:33.816Z,2.70
2019-01-19T04:45:33.794Z,1.70
2019-01-19T04:46:33.797Z,1.60
2019-01-19T04:47:33.780Z,1.40
2019-01-19T04:48:33.765Z,2.10
2019-01-19T04:49:33.783Z,2.00
2019-01-19T04:50:33.758Z,1.80
2019-01-19T04:51:33.792Z,2.10
2019-01-19T04:52:33.723Z,1.60
2019-01-19T04:53:33.710Z,2.10
2019-01-19T04:54:33.719Z,1.70
2019-01-19T04:55:33.691Z,2.00
2019-01-19T04:56:33.682Z,1.80
2019-01-19T04:57:33.673Z,1.50
2019-01-19T04:58:33.667Z,2.60
2019-01-19T04:59:33.669Z,2.30
2019-01-19T05:00:33.653Z,1.80
2019-01-19T05:01:33.632Z,1.80
2019-01-19T05:02:33.626Z,3.00
2019-01-19T05:03:33.611Z,2.70
2019-01-19T05:04:33.617Z,3.10
2019-01-19T05:05:33.593Z,1.60
2019-01-19T05:06:33.581Z,2.40
2019-01-19T05:07:33.570Z,2.10
2019-01-19T05:08:33.557Z,2.50
2019-01-19T05:09:33.563Z,1.60
2019-01-19T05:10:33.540Z,1.60
2019-01-19T05:11:33.535Z,2.80
2019-01-19T05:12:33.517Z,1.30
2019-01-19T05:13:33.506Z,1.50
2019-01-19T05:14:33.554Z,1.50
2019-01-19T05:15:33.492Z,2.10
2019-01-19T05:16:33.473Z,1.80
2019-01-19T05:17:33.465Z,1.90
2019-01-19T05:18:33.463Z,1.70
2019-01-19T05:19:33.449Z,2.80
2019-01-19T05:20:33.525Z,2.70
2019-01-19T05:21:33.433Z,2.20
2019-01-19T05:22:33.417Z,2.40
2019-01-19T05:23:33.407Z,2.00
2019-01-19T05:24:33.394Z,2.00
2019-01-19T05:25:33.396Z,1.60
2019-01-19T05:26:33.375Z,1.90
2019-01-19T05:27:33.363Z,2.30
2019-01-19T05:28:33.357Z,2.10
2019-01-19T05:29:33.346Z,1.60
2019-01-19T05:30:33.348Z,2.10
2019-01-19T05:31:33.325Z,2.50
2019-01-19T05:32:33.316Z,1.80
2019-01-19T05:33:33.303Z,2.40
2019-01-19T05:34:33.289Z,1.90
2019-01-19T05:35:33.295Z,2.30
2019-01-19T05:36:38.305Z,1.60
2019-01-19T05:37:34.265Z,1.40
2019-01-19T05:38:33.252Z,1.50
2019-01-19T05:39:33.245Z,1.50
2019-01-19T05:40:33.265Z,2.00
2019-01-19T05:41:33.216Z,2.00
2019-01-19T05:42:33.213Z,2.40
2019-01-19T05:43:33.198Z,2.20
2019-01-19T05:44:33.191Z,1.70
2019-01-19T05:45:33.188Z,1.60
2019-01-19T05:46:33.169Z,2.60
2019-01-19T05:47:33.159Z,2.30
2019-01-19T05:48:33.147Z,2.00
2019-01-19T05:49:33.136Z,1.10
2019-01-19T05:50:33.137Z,2.10
2019-01-19T05:51:33.116Z,1.90
2019-01-19T05:52:33.108Z,1.80
2019-01-19T05:53:33.102Z,1.30
2019-01-19T05:54:33.087Z,1.40
2019-01-19T05:55:33.095Z,1.80
2019-01-19T05:56:33.066Z,2.20
2019-01-19T05:57:33.057Z,1.90
2019-01-19T05:58:33.046Z,1.80
2019-01-19T05:59:33.038Z,1.40
2019-01-19T06:00:33.049Z,2.20
2019-01-19T06:01:33.013Z,2.30
2019-01-19T06:02:33.006Z,2.60
2019-01-19T06:03:32.997Z,1.80
2019-01-19T06:04:32.985Z,1.70
2019-01-19T06:05:32.986Z,1.90
2019-01-19T06:06:32.980Z,2.50
2019-01-19T06:07:32.960Z,2.00
2019-01-19T06:08:32.948Z,2.20
2019-01-19T06:09:32.935Z,2.20
2019-01-19T06:10:32.928Z,1.60
2019-01-19T06:11:32.928Z,2.10
2019-01-19T06:12:32.902Z,1.40
2019-01-19T06:13:32.894Z,1.50
2019-01-19T06:14:32.883Z,1.80
2019-01-19T06:15:32.873Z,1.60
2019-01-19T06:16:32.878Z,1.60
2019-01-19T06:17:32.858Z,2.30
2019-01-19T06:18:32.850Z,2.20
2019-01-19T06:19:32.832Z,2.50
2019-01-19T06:20:32.833Z,1.80
2019-01-19T06:21:32.823Z,3.40
2019-01-19T06:22:32.802Z,2.00
2019-01-19T06:23:32.794Z,2.70
2019-01-19T06:24:32.790Z,3.60
2019-01-19T06:25:32.769Z,1.40
2019-01-19T06:26:32.774Z,1.60
2019-01-19T06:27:32.750Z,1.40
2019-01-19T06:28:32.744Z,2.30
2019-01-19T06:29:32.735Z,1.80
2019-01-19T06:30:32.720Z,2.00
2019-01-19T06:31:32.725Z,2.30
2019-01-19T06:32:32.700Z,2.00
2019-01-19T06:33:32.699Z,2.00
2019-01-19T06:34:32.683Z,2.10
2019-01-19T06:35:32.670Z,2.30
2019-01-19T06:36:32.699Z,2.50
2019-01-19T06:37:32.655Z,1.80
2019-01-19T06:38:32.644Z,2.20
2019-01-19T06:39:32.631Z,2.80
2019-01-19T06:40:32.623Z,2.10
2019-01-19T06:41:32.610Z,2.80
2019-01-19T06:42:32.607Z,2.00
2019-01-19T06:43:32.587Z,2.10
2019-01-19T06:44:32.790Z,3.40
2019-01-19T06:45:32.904Z,1.70
2019-01-19T06:46:32.559Z,2.70
2019-01-19T06:47:32.565Z,1.90
2019-01-19T06:48:32.552Z,1.80
2019-01-19T06:49:32.712Z,2.40
2019-01-19T06:50:32.801Z,1.80
2019-01-19T06:51:32.526Z,3.00
2019-01-19T06:52:33.585Z,2.10
2019-01-19T06:53:32.704Z,2.00
2019-01-19T06:54:32.622Z,2.80
2019-01-19T06:55:32.937Z,2.10
2019-01-19T06:56:32.460Z,1.80
2019-01-19T06:57:32.463Z,2.60
2019-01-19T06:58:32.440Z,2.10
2019-01-19T06:59:32.428Z,2.60
2019-01-19T07:00:32.425Z,2.30
2019-01-19T07:01:32.406Z,2.10
2019-01-19T07:02:32.414Z,2.70
2019-01-19T07:03:32.381Z,2.40
2019-01-19T07:04:32.373Z,2.80
2019-01-19T07:05:32.362Z,2.50
2019-01-19T07:06:32.353Z,2.40
2019-01-19T07:07:32.354Z,3.30
2019-01-19T07:08:32.341Z,3.60
2019-01-19T07:09:32.328Z,2.00
2019-01-19T07:10:32.313Z,3.70
2019-01-19T07:11:32.307Z,3.70
2019-01-19T07:12:32.315Z,2.90
2019-01-19T07:13:32.286Z,1.90
2019-01-19T07:14:32.279Z,2.20
2019-01-19T07:15:32.261Z,3.20
2019-01-19T07:16:32.253Z,3.40
2019-01-19T07:17:32.259Z,1.90
2019-01-19T07:18:32.235Z,3.00
2019-01-19T07:19:32.223Z,3.30
2019-01-19T07:20:32.212Z,2.20
2019-01-19T07:21:32.209Z,2.90
2019-01-19T07:22:32.222Z,2.30
2019-01-19T07:23:32.187Z,3.30
2019-01-19T07:24:32.170Z,1.50
2019-01-19T07:25:32.167Z,2.20
2019-01-19T07:26:32.151Z,5.30
2019-01-19T07:27:32.140Z,3.20
2019-01-19T07:28:32.152Z,2.00
2019-01-19T07:29:32.126Z,3.60
2019-01-19T07:30:32.113Z,2.30
2019-01-19T07:31:32.102Z,3.40
2019-01-19T07:32:32.081Z,2.80
2019-01-19T07:33:32.103Z,2.70
2019-01-19T07:34:32.080Z,3.80
2019-01-19T07:35:32.058Z,3.20
2019-01-19T07:36:32.043Z,2.30
2019-01-19T07:37:32.036Z,3.50
2019-01-19T07:38:32.049Z,2.60
2019-01-19T07:39:32.018Z,2.50
2019-01-19T07:40:32.006Z,2.00
2019-01-19T07:41:32.003Z,3.00
2019-01-19T07:42:31.989Z,2.40
2019-01-19T07:43:31.997Z,3.10
2019-01-19T07:44:32.028Z,2.70
2019-01-19T07:45:32.018Z,2.90
2019-01-19T07:46:31.947Z,2.30
2019-01-19T07:47:31.940Z,1.90
2019-01-19T07:48:31.938Z,2.40
2019-01-19T07:49:32.048Z,1.70
2019-01-19T07:50:31.915Z,2.70
2019-01-19T07:51:31.907Z,2.20
2019-01-19T07:52:32.011Z,2.50
2019-01-19T07:53:31.927Z,3.20
2019-01-19T07:54:31.884Z,2.10
2019-01-19T07:55:31.919Z,2.90
2019-01-19T07:56:31.885Z,3.90
2019-01-19T07:57:31.858Z,2.70
2019-01-19T07:58:31.827Z,2.80
2019-01-19T07:59:31.809Z,2.70
2019-01-19T08:00:31.794Z,2.70
2019-01-19T08:01:31.789Z,2.70
2019-01-19T08:02:31.772Z,2.30
2019-01-19T08:03:31.800Z,2.00
2019-01-19T08:04:31.754Z,2.10
2019-01-19T08:05:31.742Z,2.40
2019-01-19T08:06:31.767Z,4.70
2019-01-19T08:07:31.746Z,4.20
2019-01-19T08:08:31.711Z,2.80
2019-01-19T08:09:31.713Z,2.60
2019-01-19T08:10:31.691Z,2.60
2019-01-19T08:11:31.682Z,3.50
2019-01-19T08:12:31.676Z,2.90
2019-01-19T08:13:31.672Z,2.40
2019-01-19T08:14:31.701Z,2.30
2019-01-19T08:15:31.633Z,2.50
2019-01-19T08:16:31.625Z,3.30
2019-01-19T08:17:31.615Z,3.20
2019-01-19T08:18:31.607Z,4.10
2019-01-19T08:19:31.613Z,3.10
2019-01-19T08:20:31.586Z,3.70
2019-01-19T08:21:31.576Z,5.00
2019-01-19T08:22:31.565Z,2.60
2019-01-19T08:23:31.554Z,3.50
2019-01-19T08:24:31.620Z,3.30
2019-01-19T08:25:31.534Z,2.80
2019-01-19T08:26:31.531Z,2.20
2019-01-19T08:27:31.507Z,2.60
2019-01-19T08:28:31.501Z,4.30
2019-01-19T08:29:31.497Z,2.90
2019-01-19T08:30:31.478Z,4.70
2019-01-19T08:31:31.466Z,2.80
2019-01-19T08:32:31.457Z,3.40
2019-01-19T08:33:31.456Z,2.30
2019-01-19T08:34:31.462Z,4.60
2019-01-19T08:35:31.425Z,3.90
2019-01-19T08:36:31.413Z,5.40
2019-01-19T08:37:31.430Z,3.80
2019-01-19T08:38:31.396Z,3.00
2019-01-19T08:39:31.427Z,3.90
2019-01-19T08:40:31.385Z,4.60
2019-01-19T08:41:31.420Z,5.40
2019-01-19T08:42:31.412Z,3.60
2019-01-19T08:43:31.363Z,4.20
2019-01-19T08:44:31.336Z,3.60
2019-01-19T08:45:31.448Z,5.10
2019-01-19T08:46:31.373Z,5.90
2019-01-19T08:47:31.342Z,5.00
2019-01-19T08:48:31.353Z,5.10
2019-01-19T08:49:31.334Z,4.20
2019-01-19T08:50:31.410Z,4.90
2019-01-19T08:51:31.353Z,4.40
2019-01-19T08:52:31.298Z,3.50
2019-01-19T08:53:31.287Z,8.10
2019-01-19T08:54:31.358Z,7.40
2019-01-19T08:55:31.225Z,4.80
2019-01-19T08:56:31.208Z,5.60
2019-01-19T08:57:31.205Z,5.70
2019-01-19T08:58:31.227Z,9.60
2019-01-19T08:59:31.218Z,6.70
2019-01-19T09:00:31.270Z,5.90
2019-01-19T09:01:31.219Z,7.60
2019-01-19T09:02:31.243Z,8.20
2019-01-19T09:03:31.127Z,9.20
2019-01-19T09:04:31.117Z,6.20
2019-01-19T09:05:31.142Z,9.00
2019-01-19T09:06:31.094Z,8.70
2019-01-19T09:07:33.910Z,8.30
2019-01-19T09:08:32.087Z,8.80
2019-01-19T09:09:31.140Z,8.90
2019-01-19T09:10:31.089Z,8.40
2019-01-19T09:11:31.108Z,9.10
2019-01-19T09:12:31.114Z,9.60
2019-01-19T09:13:31.024Z,9.60
2019-01-19T09:14:31.013Z,7.80
2019-01-19T09:15:31.148Z,9.70
2019-01-19T09:16:31.007Z,8.20
2019-01-19T09:17:31.039Z,9.20
2019-01-19T09:18:30.996Z,9.00
2019-01-19T09:19:30.976Z,9.10
2019-01-19T09:20:30.980Z,15.10
2019-01-19T09:21:30.977Z,10.70
2019-01-19T09:22:32.059Z,11.70
2019-01-19T09:23:30.964Z,11.50
2019-01-19T09:24:30.974Z,11.20
2019-01-19T09:25:31.005Z,10.00
2019-01-19T09:26:30.967Z,11.00
2019-01-19T09:27:30.899Z,7.40
2019-01-19T09:28:30.939Z,9.50
2019-01-19T09:29:30.915Z,12.20
2019-01-19T09:30:31.022Z,13.30
2019-01-19T09:31:30.886Z,9.40
2019-01-19T09:32:30.905Z,11.80
2019-01-19T09:33:30.923Z,8.60
2019-01-19T09:34:32.517Z,10.20
2019-01-19T09:35:31.038Z,11.40
2019-01-19T09:36:30.872Z,10.50
2019-01-19T09:37:30.907Z,7.00
2019-01-19T09:38:30.883Z,7.70
2019-01-19T09:39:30.802Z,13.40
2019-01-19T09:40:30.814Z,9.70
2019-01-19T09:41:30.860Z,10.90
2019-01-19T09:42:30.800Z,9.40
2019-01-19T09:43:30.738Z,9.30
2019-01-19T09:44:30.740Z,7.70
2019-01-19T09:45:30.702Z,8.80
2019-01-19T09:46:30.920Z,5.90
2019-01-19T09:47:30.700Z,9.50
2019-01-19T09:48:30.663Z,8.90
2019-01-19T09:49:30.642Z,6.60
2019-01-19T09:50:30.639Z,8.60
2019-01-19T09:51:30.646Z,6.40
2019-01-19T09:52:30.638Z,9.90
2019-01-19T09:53:30.657Z,6.50
2019-01-19T09:54:30.615Z,10.80
2019-01-19T09:55:30.592Z,7.90
2019-01-19T09:56:30.619Z,7.00
2019-01-19T09:57:30.598Z,8.20
2019-01-19T09:58:30.612Z,11.60
2019-01-19T09:59:30.546Z,7.10
2019-01-19T10:00:35.875Z,12.20
2019-01-19T10:01:31.536Z,8.10
2019-01-19T10:02:30.538Z,11.60
2019-01-19T10:03:30.500Z,7.90
2019-01-19T10:04:30.494Z,9.80
2019-01-19T10:05:30.483Z,8.10
2019-01-19T10:06:30.477Z,7.60
2019-01-19T10:07:30.483Z,8.30
2019-01-19T10:08:30.455Z,8.10
2019-01-19T10:09:30.457Z,7.30
2019-01-19T10:10:30.431Z,6.30
2019-01-19T10:11:30.465Z,6.90
2019-01-19T10:12:30.449Z,6.40
2019-01-19T10:13:30.424Z,7.30
2019-01-19T10:14:30.402Z,9.40
2019-01-19T10:15:30.383Z,7.30
2019-01-19T10:16:30.423Z,7.30
2019-01-19T10:17:30.372Z,9.30
2019-01-19T10:18:30.351Z,6.40
2019-01-19T10:19:30.336Z,7.70
2019-01-19T10:20:30.333Z,6.00
2019-01-19T10:21:30.318Z,6.20
2019-01-19T10:22:30.346Z,7.30
2019-01-19T10:23:30.296Z,5.80
2019-01-19T10:24:30.285Z,5.20
2019-01-19T10:25:30.276Z,6.70
2019-01-19T10:26:30.259Z,7.30
2019-01-19T10:27:37.285Z,7.60
2019-01-19T10:28:31.239Z,6.00
2019-01-19T10:29:30.224Z,8.60
2019-01-19T10:30:30.216Z,7.00
2019-01-19T10:31:30.206Z,8.20
2019-01-19T10:32:30.209Z,7.10
2019-01-19T10:33:30.182Z,6.90
2019-01-19T10:34:30.178Z,7.00
2019-01-19T10:35:30.161Z,6.10
2019-01-19T10:36:30.151Z,8.10
2019-01-19T10:37:30.153Z,8.00
2019-01-19T10:38:30.128Z,6.80
2019-01-19T10:39:30.119Z,7.20
2019-01-19T10:40:30.113Z,9.70
2019-01-19T10:41:30.147Z,6.20
2019-01-19T10:42:30.104Z,8.20
2019-01-19T10:43:30.106Z,8.40
2019-01-19T10:44:30.068Z,4.90
2019-01-19T10:45:30.061Z,8.50
2019-01-19T10:46:30.048Z,5.30
2019-01-19T10:47:30.058Z,5.10
2019-01-19T10:48:30.033Z,6.60
2019-01-19T10:49:30.031Z,10.10
2019-01-19T10:50:30.003Z,6.00
2019-01-19T10:51:29.993Z,8.10
2019-01-19T10:52:30.024Z,7.60
2019-01-19T10:53:29.989Z,7.80
2019-01-19T10:54:30.023Z,7.40
2019-01-19T10:55:29.954Z,8.30
2019-01-19T10:56:29.938Z,7.90
2019-01-19T10:57:29.944Z,7.40
2019-01-19T10:58:29.936Z,9.00
2019-01-19T10:59:29.907Z,9.70
2019-01-19T11:00:29.895Z,10.60
2019-01-19T11:01:29.886Z,10.50
2019-01-19T11:02:29.870Z,9.30
2019-01-19T11:03:29.878Z,10.80
2019-01-19T11:04:29.865Z,9.90
2019-01-19T11:05:29.844Z,10.80
2019-01-19T11:06:29.832Z,9.20
2019-01-19T11:07:29.820Z,10.30
2019-01-19T11:08:29.846Z,9.60
2019-01-19T11:09:29.828Z,7.60
2019-01-19T11:10:29.795Z,8.60
2019-01-19T11:11:29.802Z,9.20
2019-01-19T11:12:29.784Z,9.50
2019-01-19T11:13:29.765Z,8.80
2019-01-19T11:14:29.751Z,5.60
2019-01-19T11:15:29.737Z,7.70
2019-01-19T11:16:29.733Z,8.10
2019-01-19T11:17:29.709Z,7.30
2019-01-19T11:18:29.721Z,8.50
2019-01-19T11:19:29.692Z,7.30
2019-01-19T11:20:29.682Z,9.60
2019-01-19T11:21:29.672Z,9.30
2019-01-19T11:22:29.667Z,11.50
2019-01-19T11:23:29.668Z,7.30
2019-01-19T11:24:29.654Z,11.20
2019-01-19T11:25:29.639Z,12.00
2019-01-19T11:26:29.619Z,11.20
2019-01-19T11:27:29.610Z,10.50
2019-01-19T11:28:29.616Z,10.90
2019-01-19T11:29:29.584Z,11.70
2019-01-19T11:30:29.570Z,9.40
2019-01-19T11:31:29.566Z,9.20
2019-01-19T11:32:29.550Z,7.70
2019-01-19T11:33:29.564Z,14.20
2019-01-19T11:34:29.537Z,10.60
2019-01-19T11:35:29.527Z,7.40
2019-01-19T11:36:29.509Z,10.40
2019-01-19T11:37:29.514Z,8.60
2019-01-19T11:38:29.607Z,10.50
2019-01-19T11:39:29.485Z,10.70
2019-01-19T11:40:29.480Z,8.10
2019-01-19T11:41:29.466Z,11.20
2019-01-19T11:42:29.450Z,9.80
2019-01-19T11:43:29.463Z,11.50
2019-01-19T11:44:29.424Z,12.90
2019-01-19T11:45:29.417Z,11.40
2019-01-19T11:46:29.411Z,10.30
2019-01-19T11:47:29.398Z,9.40
2019-01-19T11:48:29.399Z,8.90
2019-01-19T11:49:29.395Z,10.60
2019-01-19T11:50:29.365Z,8.90
2019-01-19T11:51:29.349Z,7.60
2019-01-19T11:52:29.381Z,10.00
2019-01-19T11:53:29.350Z,10.20
2019-01-19T11:54:29.329Z,6.80
2019-01-19T11:55:29.307Z,8.50
2019-01-19T11:56:29.296Z,8.20
2019-01-19T11:57:29.297Z,9.60
2019-01-19T11:58:29.306Z,6.80
2019-01-19T11:59:29.270Z,8.10
2019-01-19T12:00:29.259Z,6.10
2019-01-19T12:01:29.248Z,9.00
2019-01-19T12:02:29.240Z,7.10
2019-01-19T12:03:29.221Z,9.10
2019-01-19T12:04:29.225Z,8.30
2019-01-19T12:05:29.199Z,10.90
2019-01-19T12:06:29.197Z,6.90
2019-01-19T12:07:29.182Z,8.00
2019-01-19T12:08:29.168Z,9.10
2019-01-19T12:09:29.179Z,8.50
2019-01-19T12:10:29.148Z,11.80
2019-01-19T12:11:29.139Z,6.50
2019-01-19T12:12:29.134Z,6.10
2019-01-19T12:13:29.120Z,7.70
2019-01-19T12:14:29.127Z,6.90
2019-01-19T12:15:29.097Z,6.90
2019-01-19T12:16:29.084Z,6.50
2019-01-19T12:17:29.110Z,7.00
2019-01-19T12:18:29.097Z,6.90
2019-01-19T12:19:29.081Z,13.10
2019-01-19T12:20:29.045Z,8.20
2019-01-19T12:21:29.034Z,6.30
2019-01-19T12:22:29.022Z,4.70
2019-01-19T12:23:29.013Z,7.20
2019-01-19T12:24:29.071Z,7.00
2019-01-19T12:25:29.007Z,7.60
2019-01-19T12:26:28.981Z,6.80
2019-01-19T12:27:28.976Z,10.90
2019-01-19T12:28:28.963Z,7.80
2019-01-19T12:29:28.991Z,8.50
2019-01-19T12:30:28.941Z,8.90
2019-01-19T12:31:28.929Z,7.60
2019-01-19T12:32:28.915Z,5.90
2019-01-19T12:33:28.907Z,6.50
2019-01-19T12:34:28.915Z,7.10
2019-01-19T12:35:28.895Z,8.90
2019-01-19T12:36:28.876Z,7.00
2019-01-19T12:37:28.865Z,7.20
2019-01-19T12:38:28.860Z,7.50
2019-01-19T12:39:28.848Z,5.70
2019-01-19T12:40:28.850Z,90.80
2019-01-19T12:41:28.829Z,63.70
2019-01-19T12:42:28.810Z,11.90
2019-01-19T12:43:28.800Z,6.90
2019-01-19T12:44:28.786Z,9.90
2019-01-19T12:45:28.818Z,9.50
2019-01-19T12:46:28.767Z,9.40
2019-01-19T12:47:28.767Z,10.20
2019-01-19T12:48:28.745Z,9.40
2019-01-19T12:49:28.735Z,8.90
2019-01-19T12:50:28.753Z,10.00
2019-01-19T12:51:28.723Z,10.00
2019-01-19T12:52:28.703Z,12.00
2019-01-19T12:53:28.685Z,13.20
2019-01-19T12:54:28.682Z,10.20
2019-01-19T12:55:28.686Z,8.50
2019-01-19T12:56:28.674Z,8.80
2019-01-19T12:57:28.646Z,9.10
2019-01-19T12:58:28.636Z,10.60
2019-01-19T12:59:28.632Z,8.50
2019-01-19T13:00:28.632Z,8.90
2019-01-19T13:01:28.603Z,10.70
2019-01-19T13:02:28.593Z,10.10
2019-01-19T13:03:28.582Z,9.80
2019-01-19T13:04:28.571Z,9.80
2019-01-19T13:05:28.579Z,11.10
2019-01-19T13:06:28.549Z,11.20
2019-01-19T13:07:28.539Z,8.70
2019-01-19T13:08:34.426Z,8.70
2019-01-19T13:09:29.517Z,13.00
2019-01-19T13:10:28.524Z,13.20
2019-01-19T13:11:28.501Z,8.40
2019-01-19T13:12:28.488Z,12.20
2019-01-19T13:13:28.497Z,8.20
2019-01-19T13:14:28.463Z,9.50
2019-01-19T13:15:28.479Z,8.60
2019-01-19T13:16:28.443Z,7.20